KMKS

Berkeley County Airport

Moncks Corner, South Carolina, USA
METAR KMKS 212035Z AUTO 35007KT 7SM CLR 17/02 A3016 RMK AO2
Observed Flight Rules
Oct-21 @ 20:35 UTC (35 minutes ago) Visual Flight Rules
Wind Visibility Clouds
350° at 7 knots 7 miles
  • Clear skies
Temperatures Readings
Current 17°C / 63°F
Dewpoint 2°C / 36°F
Humidity 37%
Altimeter 30.16" Hg
Pressure 1021 hPa
Elevation 23
METAR KMKS 212035Z AUTO 35007KT 7SM CLR 17/02 A3016 RMK AO2
Observed Flight Rules
Oct-21 @ 20:35 UTC
(35 minutes ago)
VFR
Wind Visibility
350° at 7 knots 7 miles
Clouds
  • Clear skies
Temperature Dewpoint
17°C / 63°F 2°C / 36°F
Humidity Altimeter Pressure
37% 30.16" Hg 1021 hPa